Time;durP1;ratioP1;P1;durP2;ratioP2;P2;SDS_P1;SDS_P2;PMS_P1;PMS_P2;Temp;Humidity;BMP_temperature;BMP_pressure;BME280_temperature;BME280_humidity;BME280_pressure;Samples;Min_cycle;Max_cycle;Signal;HPM_P1;HPM_P2
2021/12/03 00:03:58;;;;;;;1.30;1.20;;;;;;;;;;12543120;28;20056;-73
2021/12/03 00:10:00;;;;;;;1.17;1.07;;;;;;;;;;12543053;28;20414;-74
2021/12/03 00:16:02;;;;;;;1.93;1.43;;;;;;;;;;12541365;28;20037;-73
2021/12/03 00:22:04;;;;;;;1.83;1.60;;;;;;;;;;12541441;28;20036;-73
2021/12/03 00:28:06;;;;;;;1.85;1.55;;;;;;;;;;12532509;28;20048;-74
2021/12/03 00:34:07;;;;;;;1.73;1.63;;;;;;;;;;12550701;28;20037;-73
2021/12/03 00:40:11;;;;;;;1.25;1.00;;;;;;;;;;12533227;28;20063;-73
2021/12/03 00:46:15;;;;;;;2.35;2.15;;;;;;;;;;12550714;28;20040;-73
2021/12/03 00:52:18;;;;;;;4.93;3.40;;;;;;;;;;12549236;28;20044;-73
2021/12/03 00:58:20;;;;;;;5.68;4.38;;;;;;;;;;12532573;28;20041;-73
2021/12/03 01:04:21;;;;;;;2.90;2.13;;;;;;;;;;12548582;28;20426;-73
2021/12/03 01:10:24;;;;;;;2.30;2.10;;;;;;;;;;12549633;28;20045;-73
2021/12/03 01:16:26;;;;;;;1.60;1.50;;;;;;;;;;12549420;28;20040;-73
2021/12/03 01:22:28;;;;;;;1.27;1.17;;;;;;;;;;12549008;28;20021;-73
2021/12/03 01:28:30;;;;;;;1.20;1.02;;;;;;;;;;12548872;28;20048;-73
2021/12/03 01:34:31;;;;;;;2.00;1.90;;;;;;;;;;12548574;28;20044;-73
2021/12/03 01:40:34;;;;;;;1.80;1.70;;;;;;;;;;12548096;28;20386;-73
2021/12/03 01:46:35;;;;;;;1.52;1.42;;;;;;;;;;12548631;28;20033;-73
2021/12/03 01:52:37;;;;;;;1.35;1.25;;;;;;;;;;12546305;28;20041;-73
2021/12/03 01:58:40;;;;;;;1.10;1.10;;;;;;;;;;12547405;28;20037;-73
2021/12/03 02:04:42;;;;;;;1.42;1.33;;;;;;;;;;12546020;28;20061;-73
2021/12/03 02:10:44;;;;;;;1.20;1.10;;;;;;;;;;12546734;28;20513;-73
2021/12/03 02:16:45;;;;;;;1.08;1.08;;;;;;;;;;12546671;28;20039;-73
2021/12/03 02:22:47;;;;;;;1.55;1.20;;;;;;;;;;12544795;28;20039;-73
2021/12/03 02:28:51;;;;;;;1.42;1.33;;;;;;;;;;12545658;28;20036;-73
2021/12/03 02:58:03;;;;;;;1.65;1.52;;;;;;;;;;12557918;28;20035;-73
2021/12/03 03:04:05;;;;;;;1.37;1.27;;;;;;;;;;12544667;28;20056;-73
2021/12/03 03:10:10;;;;;;;1.25;1.20;;;;;;;;;;12542893;28;20060;-73
2021/12/03 03:16:14;;;;;;;1.40;1.30;;;;;;;;;;12544457;28;20048;-73
2021/12/03 03:22:16;;;;;;;1.20;1.10;;;;;;;;;;12543984;28;20025;-73
2021/12/03 03:28:18;;;;;;;0.70;0.70;;;;;;;;;;12543971;28;20040;-73
2021/12/03 03:34:20;;;;;;;2.33;2.13;;;;;;;;;;12544614;28;20044;-73
2021/12/03 03:40:22;;;;;;;1.48;1.38;;;;;;;;;;12543263;28;20033;-73
2021/12/03 03:46:24;;;;;;;2.40;2.20;;;;;;;;;;12543405;28;20421;-74
2021/12/03 03:52:27;;;;;;;2.03;1.90;;;;;;;;;;12525830;28;20024;-73
2021/12/03 03:58:29;;;;;;;2.50;2.17;;;;;;;;;;12544413;28;20044;-73
2021/12/03 04:04:31;;;;;;;2.95;2.70;;;;;;;;;;12551793;28;20490;-73
2021/12/03 04:10:32;;;;;;;4.30;2.95;;;;;;;;;;12551516;28;20490;-73
2021/12/03 04:16:34;;;;;;;4.57;4.18;;;;;;;;;;12550987;28;20033;-73
2021/12/03 04:22:36;;;;;;;5.22;4.68;;;;;;;;;;12551720;28;20037;-73
2021/12/03 04:28:38;;;;;;;4.47;3.95;;;;;;;;;;12550362;28;20037;-73
2021/12/03 04:34:40;;;;;;;5.07;4.10;;;;;;;;;;12551948;28;20025;-73
2021/12/03 04:40:44;;;;;;;4.13;3.55;;;;;;;;;;12550910;28;20044;-73
2021/12/03 04:46:46;;;;;;;3.33;3.03;;;;;;;;;;12550752;28;20036;-73
2021/12/03 04:52:48;;;;;;;4.18;3.78;;;;;;;;;;12550589;28;20502;-73
2021/12/03 04:58:49;;;;;;;4.75;4.35;;;;;;;;;;12550488;28;20056;-73
2021/12/03 05:04:54;;;;;;;7.68;6.97;;;;;;;;;;12550038;28;20049;-73
2021/12/03 05:10:56;;;;;;;6.40;5.80;;;;;;;;;;12548561;28;20401;-73
2021/12/03 05:16:58;;;;;;;6.50;5.93;;;;;;;;;;12548234;28;20036;-72
2021/12/03 05:23:00;;;;;;;7.50;6.80;;;;;;;;;;12549246;28;20029;-72
2021/12/03 05:29:01;;;;;;;7.07;6.43;;;;;;;;;;12547654;28;20401;-73
2021/12/03 05:35:04;;;;;;;4.15;3.83;;;;;;;;;;12549562;28;20455;-72
2021/12/03 05:41:05;;;;;;;4.23;3.83;;;;;;;;;;12548380;28;20040;-73
2021/12/03 05:47:07;;;;;;;3.70;3.40;;;;;;;;;;12547820;28;20037;-72
2021/12/03 05:53:09;;;;;;;3.58;3.28;;;;;;;;;;12546426;28;20033;-72
2021/12/03 05:59:11;;;;;;;4.28;3.88;;;;;;;;;;12547569;28;20025;-72
2021/12/03 06:05:12;;;;;;;5.13;4.72;;;;;;;;;;12545724;28;20596;-72
2021/12/03 06:11:14;;;;;;;4.32;3.92;;;;;;;;;;12545192;28;20047;-72
2021/12/03 06:17:16;;;;;;;3.75;3.45;;;;;;;;;;12546471;28;20052;-72
2021/12/03 06:23:18;;;;;;;3.75;3.45;;;;;;;;;;12544060;28;20028;-73
2021/12/03 06:29:19;;;;;;;3.15;2.85;;;;;;;;;;12545829;28;20052;-73
2021/12/03 06:35:21;;;;;;;3.17;2.88;;;;;;;;;;12545484;28;20044;-72
2021/12/03 06:41:23;;;;;;;3.25;2.92;;;;;;;;;;12545306;28;20041;-72
2021/12/03 06:47:24;;;;;;;3.08;2.78;;;;;;;;;;12534132;28;20048;-74
2021/12/03 06:53:34;;;;;;;3.17;2.88;;;;;;;;;;12502551;28;20044;-73
2021/12/03 06:59:37;;;;;;;2.95;2.75;;;;;;;;;;12523272;28;20389;-73
2021/12/03 07:05:39;;;;;;;2.80;2.50;;;;;;;;;;12520486;28;20394;-75
2021/12/03 07:11:41;;;;;;;2.75;2.55;;;;;;;;;;12510941;28;20033;-73
2021/12/03 07:17:43;;;;;;;2.28;2.08;;;;;;;;;;12504998;28;20025;-73
2021/12/03 07:23:44;;;;;;;2.85;2.65;;;;;;;;;;12510220;28;20040;-73
2021/12/03 07:29:47;;;;;;;2.78;2.58;;;;;;;;;;12521511;28;20033;-73
2021/12/03 07:35:49;;;;;;;2.92;2.72;;;;;;;;;;12484972;28;20041;-75
2021/12/03 07:41:51;;;;;;;2.92;2.72;;;;;;;;;;12523630;28;20036;-73
2021/12/03 07:47:52;;;;;;;3.85;3.55;;;;;;;;;;12507166;28;20057;-73
2021/12/03 07:53:54;;;;;;;4.55;4.22;;;;;;;;;;12523789;28;20060;-74
2021/12/03 07:59:56;;;;;;;4.40;4.00;;;;;;;;;;12504249;28;20029;-74
2021/12/03 08:06:04;;;;;;;3.35;3.15;;;;;;;;;;12515781;28;20049;-73
2021/12/03 08:12:06;;;;;;;3.67;3.38;;;;;;;;;;12517468;28;20399;-73
2021/12/03 08:18:08;;;;;;;3.10;2.88;;;;;;;;;;12528195;28;20044;-73
2021/12/03 08:24:09;;;;;;;3.97;3.67;;;;;;;;;;12503503;28;20044;-73
2021/12/03 08:30:13;;;;;;;4.55;4.15;;;;;;;;;;12531551;28;20041;-74
2021/12/03 08:36:15;;;;;;;4.10;3.80;;;;;;;;;;12505578;28;20521;-73
2021/12/03 08:42:18;;;;;;;3.97;3.67;;;;;;;;;;12516651;28;20034;-74
2021/12/03 08:48:20;;;;;;;;;;;;;;;;;;12515965;28;20037;-73
2021/12/03 09:00:41;;;;;;;3.97;3.47;;;;;;;;;;12526005;28;20046;-73
2021/12/03 09:06:43;;;;;;;3.63;3.20;;;;;;;;;;12540469;28;20064;-73
2021/12/03 09:12:45;;;;;;;3.30;3.00;;;;;;;;;;12529059;28;20045;-74
2021/12/03 09:18:48;;;;;;;2.80;2.42;;;;;;;;;;12525366;28;21314;-74
2021/12/03 09:24:50;;;;;;;3.03;2.78;;;;;;;;;;12508608;28;20033;-74
2021/12/03 09:30:52;;;;;;;3.20;2.23;;;;;;;;;;12512277;28;20041;-74
2021/12/03 09:36:54;;;;;;;6.18;4.72;;;;;;;;;;12523710;28;20028;-74
2021/12/03 09:42:56;;;;;;;2.60;2.40;;;;;;;;;;12522812;28;20037;-73
2021/12/03 09:55:12;;;;;;;2.20;1.95;;;;;;;;;;12513875;28;20025;-74
2021/12/03 10:01:26;;;;;;;2.95;2.65;;;;;;;;;;12506643;28;20048;-74
2021/12/03 10:14:47;;;;;;;2.25;2.00;;;;;;;;;;12532686;28;20033;-75
2021/12/03 10:51:39;;;;;;;2.00;1.80;;;;;;;;;;12511565;28;20405;-75
2021/12/03 11:29:54;;;;;;;2.53;2.30;;;;;;;;;;12540589;28;20053;-74
2021/12/03 12:14:48;;;;;;;1.90;1.70;;;;;;;;;;12524434;28;20049;-74
2021/12/03 13:23:53;;;;;;;0.63;0.63;;;;;;;;;;12511624;28;20036;-74
2021/12/03 14:58:10;;;;;;;2.10;1.90;;;;;;;;;;12495463;28;20034;-75
2021/12/03 15:04:30;;;;;;;1.30;1.20;;;;;;;;;;12495311;28;20068;-73
2021/12/03 15:23:01;;;;;;;1.35;1.25;;;;;;;;;;12493300;28;20060;-74
2021/12/03 15:35:20;;;;;;;1.65;1.45;;;;;;;;;;12494484;28;20041;-75
2021/12/03 16:19:29;;;;;;;2.33;2.05;;;;;;;;;;12502895;28;20074;-74
2021/12/03 16:56:50;;;;;;;4.40;3.30;;;;;;;;;;12501708;28;20033;-74
2021/12/03 17:15:11;;;;;;;3.75;3.25;;;;;;;;;;12549646;28;20394;-74
2021/12/03 17:59:34;;;;;;;5.22;4.68;;;;;;;;;;12547533;28;20044;-74
2021/12/03 18:55:56;;;;;;;4.32;3.92;;;;;;;;;;12560846;28;20068;-74
2021/12/03 19:01:59;;;;;;;4.53;4.13;;;;;;;;;;12544608;28;20470;-74
2021/12/03 19:08:11;;;;;;;;;;;;;;;;;;12543542;28;20064;-73
2021/12/03 19:14:13;;;;;;;5.20;4.47;;;;;;;;;;12546088;28;19908;-74
2021/12/03 19:20:21;;;;;;;4.80;4.40;;;;;;;;;;12542864;28;20032;-73
2021/12/03 19:26:23;;;;;;;2.90;2.60;;;;;;;;;;12542984;28;20036;-74
2021/12/03 19:32:26;;;;;;;5.22;4.20;;;;;;;;;;12543075;28;20048;-74
2021/12/03 19:38:30;;;;;;;4.45;4.03;;;;;;;;;;12543625;28;20037;-74
2021/12/03 19:44:48;;;;;;;5.22;4.72;;;;;;;;;;12543513;28;20040;-74
2021/12/03 19:50:56;;;;;;;4.75;4.30;;;;;;;;;;12543322;28;20048;-72
2021/12/03 19:56:58;;;;;;;6.60;5.88;;;;;;;;;;12542435;28;20386;-75
2021/12/03 20:02:59;;;;;;;6.18;5.53;;;;;;;;;;12542959;28;20053;-73
2021/12/03 20:09:02;;;;;;;6.00;5.40;;;;;;;;;;12541808;28;20056;-73
2021/12/03 20:15:07;;;;;;;9.68;8.68;;;;;;;;;;12525348;28;20041;-73
2021/12/03 20:21:11;;;;;;;5.70;5.18;;;;;;;;;;12541085;28;20120;-73
2021/12/03 20:27:17;;;;;;;5.38;4.47;;;;;;;;;;12541208;28;20025;-73
2021/12/03 20:39:26;;;;;;;5.78;5.28;;;;;;;;;;12542481;28;20036;-73
2021/12/03 21:11:03;;;;;;;4.22;3.83;;;;;;;;;;12549993;28;20057;-73
2021/12/03 21:17:12;;;;;;;4.07;3.38;;;;;;;;;;12548680;28;20029;-73
2021/12/03 21:23:17;;;;;;;7.93;6.40;;;;;;;;;;12549386;28;20425;-73
2021/12/03 21:41:59;;;;;;;7.85;6.70;;;;;;;;;;12548363;28;20045;-73
2021/12/03 21:48:01;;;;;;;6.75;5.72;;;;;;;;;;12548357;28;20398;-73
2021/12/03 21:54:03;;;;;;;5.43;4.82;;;;;;;;;;12546408;28;20040;-73
2021/12/03 22:00:06;;;;;;;6.00;4.47;;;;;;;;;;12547735;28;20029;-73
2021/12/03 22:06:14;;;;;;;5.80;5.20;;;;;;;;;;12547596;28;20053;-73
2021/12/03 22:12:15;;;;;;;5.20;4.70;;;;;;;;;;12545904;28;20049;-73
2021/12/03 22:18:17;;;;;;;5.45;4.95;;;;;;;;;;12546075;28;20036;-73
2021/12/03 22:24:19;;;;;;;5.40;4.90;;;;;;;;;;12545367;28;20045;-73
2021/12/03 22:30:21;;;;;;;5.05;4.65;;;;;;;;;;12545245;28;20041;-74
2021/12/03 22:36:22;;;;;;;5.13;4.60;;;;;;;;;;12546924;28;20040;-74
2021/12/03 22:42:24;;;;;;;5.57;4.97;;;;;;;;;;12545636;28;20491;-74
2021/12/03 22:54:27;;;;;;;6.45;5.45;;;;;;;;;;12543725;28;20033;-74
2021/12/03 23:00:32;;;;;;;7.30;6.60;;;;;;;;;;12545125;28;20151;-74
2021/12/03 23:06:40;;;;;;;6.20;5.53;;;;;;;;;;12543124;28;20048;-73
2021/12/03 23:12:41;;;;;;;5.63;4.72;;;;;;;;;;12543325;28;20045;-73
2021/12/03 23:18:43;;;;;;;6.45;5.85;;;;;;;;;;12544554;28;20421;-74
2021/12/03 23:24:45;;;;;;;5.70;5.05;;;;;;;;;;12544004;28;20395;-74
2021/12/03 23:30:47;;;;;;;4.93;4.43;;;;;;;;;;12544111;28;20048;-74
2021/12/03 23:36:51;;;;;;;5.18;4.53;;;;;;;;;;12543356;28;20032;-74
2021/12/03 23:42:52;;;;;;;4.32;3.85;;;;;;;;;;12542550;28;20041;-74
2021/12/03 23:48:54;;;;;;;4.35;3.92;;;;;;;;;;12542511;28;20037;-76
2021/12/03 23:54:58;;;;;;;5.43;4.88;;;;;;;;;;12542346;28;20048;-73
